sensor_id;sensor_type;location;lat;lon;timestamp;pressure;altitude;pressure_sealevel;temperature;humidity
70546;BME280;58098;51.680;5.134;2023-05-27T00:01:19;102996.03;;;10.20;100.00
70546;BME280;58098;51.680;5.134;2023-05-27T00:03:45;103000.75;;;10.12;100.00
70546;BME280;58098;51.680;5.134;2023-05-27T00:06:11;102991.59;;;10.02;100.00
70546;BME280;58098;51.680;5.134;2023-05-27T00:08:37;102978.00;;;9.93;100.00
70546;BME280;58098;51.680;5.134;2023-05-27T00:11:02;102987.22;;;10.02;100.00
70546;BME280;58098;51.680;5.134;2023-05-27T00:13:27;102979.13;;;9.88;100.00
70546;BME280;58098;51.680;5.134;2023-05-27T00:15:53;102982.88;;;9.81;100.00
70546;BME280;58098;51.680;5.134;2023-05-27T00:18:18;102973.44;;;9.78;100.00
70546;BME280;58098;51.680;5.134;2023-05-27T00:20:43;102983.63;;;9.84;100.00
70546;BME280;58098;51.680;5.134;2023-05-27T00:23:09;102982.88;;;9.81;100.00
70546;BME280;58098;51.680;5.134;2023-05-27T00:25:35;102972.97;;;9.69;100.00
70546;BME280;58098;51.680;5.134;2023-05-27T00:28:00;102981.44;;;9.74;100.00
70546;BME280;58098;51.680;5.134;2023-05-27T00:30:25;102974.59;;;9.71;100.00
70546;BME280;58098;51.680;5.134;2023-05-27T00:32:51;102973.81;;;9.69;100.00
70546;BME280;58098;51.680;5.134;2023-05-27T00:35:16;102979.16;;;9.66;100.00
70546;BME280;58098;51.680;5.134;2023-05-27T00:37:41;102978.25;;;9.67;100.00
70546;BME280;58098;51.680;5.134;2023-05-27T00:40:09;102964.47;;;9.64;100.00
70546;BME280;58098;51.680;5.134;2023-05-27T00:42:35;102944.88;;;9.55;100.00
70546;BME280;58098;51.680;5.134;2023-05-27T00:45:02;102958.75;;;9.56;100.00
70546;BME280;58098;51.680;5.134;2023-05-27T00:47:30;102966.56;;;9.56;100.00
70546;BME280;58098;51.680;5.134;2023-05-27T00:49:56;102974.31;;;9.57;100.00
70546;BME280;58098;51.680;5.134;2023-05-27T00:52:22;102948.19;;;9.37;100.00
70546;BME280;58098;51.680;5.134;2023-05-27T00:54:47;102968.81;;;9.43;100.00
70546;BME280;58098;51.680;5.134;2023-05-27T00:57:13;102968.94;;;9.40;100.00
70546;BME280;58098;51.680;5.134;2023-05-27T00:59:38;102957.84;;;9.35;100.00
70546;BME280;58098;51.680;5.134;2023-05-27T01:02:05;102947.53;;;9.32;100.00
70546;BME280;58098;51.680;5.134;2023-05-27T01:04:30;102954.25;;;9.38;100.00
70546;BME280;58098;51.680;5.134;2023-05-27T01:07:24;102937.50;;;9.23;100.00
70546;BME280;58098;51.680;5.134;2023-05-27T01:12:48;102944.41;;;9.24;100.00
70546;BME280;58098;51.680;5.134;2023-05-27T01:15:16;102934.66;;;9.07;100.00
70546;BME280;58098;51.680;5.134;2023-05-27T01:17:44;102922.81;;;8.99;100.00
70546;BME280;58098;51.680;5.134;2023-05-27T01:20:12;102951.00;;;9.11;100.00
70546;BME280;58098;51.680;5.134;2023-05-27T01:22:40;102955.53;;;9.06;100.00
70546;BME280;58098;51.680;5.134;2023-05-27T01:25:08;102952.75;;;9.10;100.00
70546;BME280;58098;51.680;5.134;2023-05-27T01:27:33;102927.81;;;9.05;100.00
70546;BME280;58098;51.680;5.134;2023-05-27T01:29:59;102946.81;;;9.07;100.00
70546;BME280;58098;51.680;5.134;2023-05-27T01:32:30;102906.09;;;8.83;100.00
70546;BME280;58098;51.680;5.134;2023-05-27T01:37:38;102939.31;;;8.99;100.00
70546;BME280;58098;51.680;5.134;2023-05-27T01:40:07;102935.06;;;8.97;100.00
70546;BME280;58098;51.680;5.134;2023-05-27T01:42:35;102922.59;;;8.83;100.00
70546;BME280;58098;51.680;5.134;2023-05-27T01:45:02;102931.28;;;8.82;100.00
70546;BME280;58098;51.680;5.134;2023-05-27T01:47:30;102932.25;;;8.80;100.00
70546;BME280;58098;51.680;5.134;2023-05-27T01:49:55;102931.56;;;8.75;100.00
70546;BME280;58098;51.680;5.134;2023-05-27T01:52:21;102939.63;;;8.69;100.00
70546;BME280;58098;51.680;5.134;2023-05-27T01:54:46;102942.34;;;8.66;100.00
70546;BME280;58098;51.680;5.134;2023-05-27T01:57:11;102938.09;;;8.63;100.00
70546;BME280;58098;51.680;5.134;2023-05-27T01:59:37;102944.38;;;8.57;100.00
70546;BME280;58098;51.680;5.134;2023-05-27T02:02:02;102944.97;;;8.64;100.00
70546;BME280;58098;51.680;5.134;2023-05-27T02:04:27;102956.34;;;8.61;100.00
70546;BME280;58098;51.680;5.134;2023-05-27T02:06:53;102953.13;;;8.55;100.00
70546;BME280;58098;51.680;5.134;2023-05-27T02:09:18;102943.69;;;8.52;100.00
70546;BME280;58098;51.680;5.134;2023-05-27T02:11:43;102943.97;;;8.45;100.00
70546;BME280;58098;51.680;5.134;2023-05-27T02:14:09;102944.03;;;8.43;100.00
70546;BME280;58098;51.680;5.134;2023-05-27T02:16:34;102940.63;;;8.41;100.00
70546;BME280;58098;51.680;5.134;2023-05-27T02:19:00;102944.53;;;8.53;100.00
70546;BME280;58098;51.680;5.134;2023-05-27T02:21:26;102931.00;;;8.43;100.00
70546;BME280;58098;51.680;5.134;2023-05-27T02:23:51;102920.00;;;8.37;100.00
70546;BME280;58098;51.680;5.134;2023-05-27T02:26:17;102930.59;;;8.31;100.00
70546;BME280;58098;51.680;5.134;2023-05-27T02:28:42;102950.28;;;8.38;100.00
70546;BME280;58098;51.680;5.134;2023-05-27T02:31:07;102928.31;;;8.22;100.00
70546;BME280;58098;51.680;5.134;2023-05-27T02:33:33;102941.19;;;8.26;100.00
70546;BME280;58098;51.680;5.134;2023-05-27T02:35:59;102950.69;;;8.27;100.00
70546;BME280;58098;51.680;5.134;2023-05-27T02:38:24;102950.09;;;8.18;100.00
70546;BME280;58098;51.680;5.134;2023-05-27T02:40:50;102942.53;;;8.12;100.00
70546;BME280;58098;51.680;5.134;2023-05-27T02:43:16;102938.13;;;8.14;100.00
70546;BME280;58098;51.680;5.134;2023-05-27T02:45:41;102950.50;;;8.07;100.00
70546;BME280;58098;51.680;5.134;2023-05-27T02:48:07;102946.09;;;8.09;100.00
70546;BME280;58098;51.680;5.134;2023-05-27T02:50:33;102928.50;;;7.91;100.00
70546;BME280;58098;51.680;5.134;2023-05-27T02:52:58;102944.00;;;7.94;100.00
70546;BME280;58098;51.680;5.134;2023-05-27T02:55:23;102959.41;;;8.00;100.00
70546;BME280;58098;51.680;5.134;2023-05-27T02:57:49;102962.91;;;7.99;100.00
70546;BME280;58098;51.680;5.134;2023-05-27T03:00:15;102954.63;;;7.88;100.00
70546;BME280;58098;51.680;5.134;2023-05-27T03:02:41;102959.06;;;7.84;100.00
70546;BME280;58098;51.680;5.134;2023-05-27T03:05:07;102958.13;;;7.87;100.00
70546;BME280;58098;51.680;5.134;2023-05-27T03:07:32;102957.41;;;7.82;100.00
70546;BME280;58098;51.680;5.134;2023-05-27T03:09:58;102946.44;;;7.74;100.00
70546;BME280;58098;51.680;5.134;2023-05-27T03:12:23;102954.03;;;7.80;100.00
70546;BME280;58098;51.680;5.134;2023-05-27T03:14:49;102954.03;;;7.80;100.00
70546;BME280;58098;51.680;5.134;2023-05-27T03:17:14;102953.13;;;7.81;100.00
70546;BME280;58098;51.680;5.134;2023-05-27T03:19:40;102941.34;;;7.71;100.00
70546;BME280;58098;51.680;5.134;2023-05-27T03:22:05;102934.66;;;7.64;100.00
70546;BME280;58098;51.680;5.134;2023-05-27T03:24:32;102941.63;;;7.62;100.00
70546;BME280;58098;51.680;5.134;2023-05-27T03:26:57;102948.34;;;7.69;100.00
70546;BME280;58098;51.680;5.134;2023-05-27T03:29:22;102939.84;;;7.64;100.00
70546;BME280;58098;51.680;5.134;2023-05-27T03:31:48;102934.44;;;7.70;100.00
70546;BME280;58098;51.680;5.134;2023-05-27T03:34:14;102918.53;;;7.54;100.00
70546;BME280;58098;51.680;5.134;2023-05-27T03:36:40;102945.06;;;7.64;100.00
70546;BME280;58098;51.680;5.134;2023-05-27T03:39:05;102940.03;;;7.58;100.00
70546;BME280;58098;51.680;5.134;2023-05-27T03:41:31;102942.53;;;7.61;100.00
70546;BME280;58098;51.680;5.134;2023-05-27T03:43:56;102939.84;;;7.64;100.00
70546;BME280;58098;51.680;5.134;2023-05-27T03:46:22;102933.84;;;7.62;100.00
70546;BME280;58098;51.680;5.134;2023-05-27T03:48:47;102932.16;;;7.61;100.00
70546;BME280;58098;51.680;5.134;2023-05-27T03:51:12;102915.00;;;7.55;100.00
70546;BME280;58098;51.680;5.134;2023-05-27T03:53:38;102921.06;;;7.56;100.00
70546;BME280;58098;51.680;5.134;2023-05-27T03:56:03;102926.00;;;7.63;100.00
70546;BME280;58098;51.680;5.134;2023-05-27T03:58:29;102912.47;;;7.54;100.00
70546;BME280;58098;51.680;5.134;2023-05-27T04:00:54;102915.66;;;7.62;100.00
70546;BME280;58098;51.680;5.134;2023-05-27T04:03:20;102919.91;;;7.64;100.00
70546;BME280;58098;51.680;5.134;2023-05-27T04:05:45;102921.59;;;7.65;100.00
70546;BME280;58098;51.680;5.134;2023-05-27T04:08:11;102925.09;;;7.64;100.00
70546;BME280;58098;51.680;5.134;2023-05-27T04:10:38;102917.47;;;7.60;100.00
70546;BME280;58098;51.680;5.134;2023-05-27T04:13:03;102929.34;;;7.67;100.00
70546;BME280;58098;51.680;5.134;2023-05-27T04:15:29;102922.56;;;7.63;100.00
70546;BME280;58098;51.680;5.134;2023-05-27T04:17:54;102932.63;;;7.72;100.00
70546;BME280;58098;51.680;5.134;2023-05-27T04:20:19;102924.66;;;7.78;100.00
70546;BME280;58098;51.680;5.134;2023-05-27T04:22:45;102922.16;;;7.75;100.00
70546;BME280;58098;51.680;5.134;2023-05-27T04:25:10;102926.41;;;7.77;100.00
70546;BME280;58098;51.680;5.134;2023-05-27T04:27:36;102923.63;;;7.82;100.00
70546;BME280;58098;51.680;5.134;2023-05-27T04:30:05;102897.88;;;7.76;100.00
70546;BME280;58098;51.680;5.134;2023-05-27T04:32:31;102909.53;;;7.89;100.00
70546;BME280;58098;51.680;5.134;2023-05-27T04:35:04;102912.78;;;7.95;100.00
70546;BME280;58098;51.680;5.134;2023-05-27T04:37:30;102908.53;;;7.93;100.00
70546;BME280;58098;51.680;5.134;2023-05-27T04:39:55;102914.13;;;8.06;100.00
70546;BME280;58098;51.680;5.134;2023-05-27T04:42:22;102902.09;;;8.03;100.00
70546;BME280;58098;51.680;5.134;2023-05-27T04:44:48;102905.38;;;8.08;100.00
70546;BME280;58098;51.680;5.134;2023-05-27T04:47:13;102913.75;;;8.16;100.00
70546;BME280;58098;51.680;5.134;2023-05-27T04:49:39;102899.13;;;8.14;100.00
70546;BME280;58098;51.680;5.134;2023-05-27T04:52:05;102912.75;;;8.20;100.00
70546;BME280;58098;51.680;5.134;2023-05-27T04:54:32;102910.75;;;8.28;100.00
70546;BME280;58098;51.680;5.134;2023-05-27T04:56:57;102900.41;;;8.27;100.00
70546;BME280;58098;51.680;5.134;2023-05-27T04:59:23;102903.47;;;8.38;100.00
70546;BME280;58098;51.680;5.134;2023-05-27T05:01:54;102903.19;;;8.45;100.00
70546;BME280;58098;51.680;5.134;2023-05-27T05:04:38;102880.13;;;8.36;100.00
70546;BME280;58098;51.680;5.134;2023-05-27T05:07:03;102897.09;;;8.46;100.00
70546;BME280;58098;51.680;5.134;2023-05-27T05:09:29;102898.50;;;8.55;100.00
70546;BME280;58098;51.680;5.134;2023-05-27T05:11:54;102895.78;;;8.58;100.00
70546;BME280;58098;51.680;5.134;2023-05-27T05:14:20;102881.19;;;8.54;100.00
70546;BME280;58098;51.680;5.134;2023-05-27T05:16:45;102883.44;;;8.63;100.00
70546;BME280;58098;51.680;5.134;2023-05-27T05:19:11;102890.84;;;8.74;100.00
70546;BME280;58098;51.680;5.134;2023-05-27T05:21:36;102892.34;;;8.79;100.00
70546;BME280;58098;51.680;5.134;2023-05-27T05:24:02;102895.69;;;8.83;100.00
70546;BME280;58098;51.680;5.134;2023-05-27T05:26:29;102876.69;;;8.81;100.00
70546;BME280;58098;51.680;5.134;2023-05-27T05:28:54;102883.22;;;8.91;100.00
70546;BME280;58098;51.680;5.134;2023-05-27T05:31:20;102881.28;;;8.96;100.00
70546;BME280;58098;51.680;5.134;2023-05-27T05:33:45;102874.44;;;8.93;100.00
70546;BME280;58098;51.680;5.134;2023-05-27T05:36:10;102892.06;;;9.08;100.00
70546;BME280;58098;51.680;5.134;2023-05-27T05:38:36;102874.69;;;9.09;100.00
70546;BME280;58098;51.680;5.134;2023-05-27T05:41:02;102878.63;;;9.19;100.00
70546;BME280;58098;51.680;5.134;2023-05-27T05:43:28;102883.22;;;9.34;100.00
70546;BME280;58098;51.680;5.134;2023-05-27T05:45:53;102882.72;;;9.46;100.00
70546;BME280;58098;51.680;5.134;2023-05-27T05:48:18;102879.91;;;9.51;100.00
70546;BME280;58098;51.680;5.134;2023-05-27T05:50:44;102875.16;;;9.60;100.00
70546;BME280;58098;51.680;5.134;2023-05-27T05:53:10;102869.94;;;9.60;100.00
70546;BME280;58098;51.680;5.134;2023-05-27T05:55:35;102879.78;;;9.74;100.00
70546;BME280;58098;51.680;5.134;2023-05-27T05:58:01;102876.78;;;9.83;100.00
70546;BME280;58098;51.680;5.134;2023-05-27T06:00:26;102870.44;;;9.88;100.00
70546;BME280;58098;51.680;5.134;2023-05-27T06:02:52;102878.53;;;10.03;100.00
70546;BME280;58098;51.680;5.134;2023-05-27T06:05:18;102885.03;;;10.13;100.00
70546;BME280;58098;51.680;5.134;2023-05-27T06:07:43;102871.88;;;10.16;100.00
70546;BME280;58098;51.680;5.134;2023-05-27T06:10:09;102863.78;;;10.22;100.00
70546;BME280;58098;51.680;5.134;2023-05-27T06:12:34;102864.91;;;10.35;100.00
70546;BME280;58098;51.680;5.134;2023-05-27T06:15:01;102868.44;;;10.52;100.00
70546;BME280;58098;51.680;5.134;2023-05-27T06:17:26;102873.25;;;10.61;100.00
70546;BME280;58098;51.680;5.134;2023-05-27T06:19:51;102853.06;;;10.65;100.00
70546;BME280;58098;51.680;5.134;2023-05-27T06:22:17;102856.00;;;10.76;100.00
70546;BME280;58098;51.680;5.134;2023-05-27T06:24:42;102857.25;;;10.86;100.00
70546;BME280;58098;51.680;5.134;2023-05-27T06:27:07;102867.84;;;11.02;100.00
70546;BME280;58098;51.680;5.134;2023-05-27T06:29:33;102844.00;;;11.08;100.00
70546;BME280;58098;51.680;5.134;2023-05-27T06:31:58;102845.25;;;11.18;100.00
70546;BME280;58098;51.680;5.134;2023-05-27T06:34:23;102848.25;;;11.27;100.00
70546;BME280;58098;51.680;5.134;2023-05-27T06:36:49;102837.66;;;11.31;100.00
70546;BME280;58098;51.680;5.134;2023-05-27T06:39:15;102849.03;;;11.47;100.00
70546;BME280;58098;51.680;5.134;2023-05-27T06:41:40;102845.34;;;11.51;100.00
70546;BME280;58098;51.680;5.134;2023-05-27T06:44:06;102850.03;;;11.61;100.00
70546;BME280;58098;51.680;5.134;2023-05-27T06:46:31;102848.25;;;11.62;100.00
70546;BME280;58098;51.680;5.134;2023-05-27T06:48:57;102840.25;;;11.65;100.00
70546;BME280;58098;51.680;5.134;2023-05-27T06:51:22;102846.16;;;11.85;100.00
70546;BME280;58098;51.680;5.134;2023-05-27T06:53:48;102831.09;;;11.90;100.00
70546;BME280;58098;51.680;5.134;2023-05-27T06:56:13;102835.75;;;12.01;100.00
70546;BME280;58098;51.680;5.134;2023-05-27T06:58:39;102827.41;;;12.10;100.00
70546;BME280;58098;51.680;5.134;2023-05-27T07:01:04;102835.22;;;12.27;100.00
70546;BME280;58098;51.680;5.134;2023-05-27T07:03:29;102823.31;;;12.37;100.00
70546;BME280;58098;51.680;5.134;2023-05-27T07:05:55;102827.28;;;12.44;100.00
70546;BME280;58098;51.680;5.134;2023-05-27T07:08:20;102826.00;;;12.51;100.00
70546;BME280;58098;51.680;5.134;2023-05-27T07:10:46;102834.63;;;12.69;100.00
70546;BME280;58098;51.680;5.134;2023-05-27T07:13:11;102830.13;;;12.87;100.00
70546;BME280;58098;51.680;5.134;2023-05-27T07:15:39;102833.06;;;13.12;100.00
70546;BME280;58098;51.680;5.134;2023-05-27T07:18:04;102831.25;;;13.28;100.00
70546;BME280;58098;51.680;5.134;2023-05-27T07:20:29;102825.16;;;13.57;100.00
70546;BME280;58098;51.680;5.134;2023-05-27T07:22:55;102825.78;;;13.61;100.00
70546;BME280;58098;51.680;5.134;2023-05-27T07:25:20;102826.19;;;13.69;100.00
70546;BME280;58098;51.680;5.134;2023-05-27T07:27:45;102817.47;;;13.82;100.00
70546;BME280;58098;51.680;5.134;2023-05-27T07:30:11;102814.00;;;14.10;100.00
70546;BME280;58098;51.680;5.134;2023-05-27T07:32:36;102812.78;;;14.16;100.00
70546;BME280;58098;51.680;5.134;2023-05-27T07:35:03;102817.16;;;14.43;100.00
70546;BME280;58098;51.680;5.134;2023-05-27T07:37:28;102809.16;;;14.59;100.00
70546;BME280;58098;51.680;5.134;2023-05-27T07:39:55;102811.03;;;14.57;100.00
70546;BME280;58098;51.680;5.134;2023-05-27T07:42:20;102805.94;;;14.68;100.00
70546;BME280;58098;51.680;5.134;2023-05-27T07:44:46;102807.09;;;15.03;100.00
70546;BME280;58098;51.680;5.134;2023-05-27T07:47:11;102791.22;;;15.05;100.00
70546;BME280;58098;51.680;5.134;2023-05-27T07:49:36;102787.38;;;15.23;100.00
70546;BME280;58098;51.680;5.134;2023-05-27T07:52:02;102800.00;;;15.43;100.00
70546;BME280;58098;51.680;5.134;2023-05-27T07:54:27;102795.72;;;15.67;100.00
70546;BME280;58098;51.680;5.134;2023-05-27T07:56:53;102780.81;;;16.04;100.00
70546;BME280;58098;51.680;5.134;2023-05-27T07:59:18;102785.84;;;16.20;100.00
70546;BME280;58098;51.680;5.134;2023-05-27T08:01:44;102780.72;;;16.42;100.00
70546;BME280;58098;51.680;5.134;2023-05-27T08:04:09;102790.09;;;16.46;100.00
70546;BME280;58098;51.680;5.134;2023-05-27T08:06:35;102785.47;;;16.73;100.00
70546;BME280;58098;51.680;5.134;2023-05-27T08:09:01;102792.34;;;16.87;100.00
70546;BME280;58098;51.680;5.134;2023-05-27T08:11:29;102779.63;;;16.81;100.00
70546;BME280;58098;51.680;5.134;2023-05-27T08:13:56;102793.38;;;16.73;100.00
70546;BME280;58098;51.680;5.134;2023-05-27T08:16:21;102780.88;;;16.99;100.00
70546;BME280;58098;51.680;5.134;2023-05-27T08:18:47;102761.19;;;16.92;100.00
70546;BME280;58098;51.680;5.134;2023-05-27T08:21:12;102767.75;;;17.21;100.00
70546;BME280;58098;51.680;5.134;2023-05-27T08:23:37;102766.16;;;17.64;100.00
70546;BME280;58098;51.680;5.134;2023-05-27T08:26:03;102763.00;;;17.48;100.00
70546;BME280;58098;51.680;5.134;2023-05-27T08:28:28;102762.06;;;17.94;100.00
70546;BME280;58098;51.680;5.134;2023-05-27T08:30:53;102758.97;;;18.00;100.00
70546;BME280;58098;51.680;5.134;2023-05-27T08:33:19;102755.06;;;18.26;100.00
70546;BME280;58098;51.680;5.134;2023-05-27T08:35:44;102749.50;;;18.51;100.00
70546;BME280;58098;51.680;5.134;2023-05-27T08:38:10;102739.41;;;18.56;100.00
70546;BME280;58098;51.680;5.134;2023-05-27T08:40:35;102749.34;;;18.84;100.00
70546;BME280;58098;51.680;5.134;2023-05-27T08:43:01;102753.94;;;18.82;100.00
70546;BME280;58098;51.680;5.134;2023-05-27T08:45:27;102728.25;;;19.15;100.00
70546;BME280;58098;51.680;5.134;2023-05-27T08:47:53;102741.47;;;18.94;100.00
70546;BME280;58098;51.680;5.134;2023-05-27T08:50:19;102728.97;;;18.96;100.00
70546;BME280;58098;51.680;5.134;2023-05-27T08:52:53;102730.56;;;19.08;100.00
70546;BME280;58098;51.680;5.134;2023-05-27T08:55:20;102740.34;;;19.07;100.00
70546;BME280;58098;51.680;5.134;2023-05-27T08:57:54;102708.13;;;19.02;100.00
70546;BME280;58098;51.680;5.134;2023-05-27T09:00:20;102721.75;;;18.98;100.00
70546;BME280;58098;51.680;5.134;2023-05-27T09:02:46;102720.66;;;19.00;100.00
70546;BME280;58098;51.680;5.134;2023-05-27T09:05:14;102711.22;;;19.07;100.00
70546;BME280;58098;51.680;5.134;2023-05-27T09:07:40;102722.31;;;19.01;100.00
70546;BME280;58098;51.680;5.134;2023-05-27T09:10:06;102716.97;;;19.13;100.00
70546;BME280;58098;51.680;5.134;2023-05-27T09:12:32;102703.31;;;19.38;100.00
70546;BME280;58098;51.680;5.134;2023-05-27T09:14:58;102704.69;;;19.32;100.00
70546;BME280;58098;51.680;5.134;2023-05-27T09:17:23;102705.19;;;19.96;100.00
70546;BME280;58098;51.680;5.134;2023-05-27T09:19:53;102693.63;;;19.97;100.00
70546;BME280;58098;51.680;5.134;2023-05-27T09:22:45;102703.31;;;20.17;100.00
70546;BME280;58098;51.680;5.134;2023-05-27T09:25:10;102696.34;;;19.76;100.00
70546;BME280;58098;51.680;5.134;2023-05-27T09:27:35;102698.03;;;20.65;100.00
70546;BME280;58098;51.680;5.134;2023-05-27T09:30:08;102693.44;;;20.48;100.00
70546;BME280;58098;51.680;5.134;2023-05-27T09:32:34;102691.63;;;20.49;100.00
70546;BME280;58098;51.680;5.134;2023-05-27T09:35:01;102694.06;;;20.88;100.00
70546;BME280;58098;51.680;5.134;2023-05-27T09:37:28;102686.34;;;21.24;100.00
70546;BME280;58098;51.680;5.134;2023-05-27T09:40:14;102687.16;;;21.88;100.00
70546;BME280;58098;51.680;5.134;2023-05-27T09:42:41;102677.94;;;21.83;100.00
70546;BME280;58098;51.680;5.134;2023-05-27T09:45:10;102677.91;;;21.65;100.00
70546;BME280;58098;51.680;5.134;2023-05-27T09:47:42;102687.25;;;21.96;100.00
70546;BME280;58098;51.680;5.134;2023-05-27T09:50:08;102667.91;;;21.77;100.00
70546;BME280;58098;51.680;5.134;2023-05-27T09:52:36;102669.38;;;21.89;100.00
70546;BME280;58098;51.680;5.134;2023-05-27T09:55:03;102665.53;;;22.18;100.00
70546;BME280;58098;51.680;5.134;2023-05-27T09:57:30;102665.16;;;22.31;100.00
70546;BME280;58098;51.680;5.134;2023-05-27T09:59:58;102673.19;;;22.39;100.00
70546;BME280;58098;51.680;5.134;2023-05-27T10:02:25;102676.69;;;22.22;100.00
70546;BME280;58098;51.680;5.134;2023-05-27T10:04:51;102663.50;;;22.65;100.00
70546;BME280;58098;51.680;5.134;2023-05-27T10:07:17;102677.28;;;22.51;100.00
70546;BME280;58098;51.680;5.134;2023-05-27T10:09:47;102674.31;;;22.89;100.00
70546;BME280;58098;51.680;5.134;2023-05-27T10:12:14;102661.97;;;22.88;100.00
70546;BME280;58098;51.680;5.134;2023-05-27T10:14:40;102653.19;;;23.22;100.00
70546;BME280;58098;51.680;5.134;2023-05-27T10:17:08;102659.78;;;23.93;100.00
70546;BME280;58098;51.680;5.134;2023-05-27T10:19:34;102644.19;;;24.22;100.00
70546;BME280;58098;51.680;5.134;2023-05-27T10:22:07;102651.13;;;23.99;97.25
70546;BME280;58098;51.680;5.134;2023-05-27T10:24:33;102638.38;;;23.61;100.00
70546;BME280;58098;51.680;5.134;2023-05-27T10:27:02;102647.59;;;23.91;94.85
70546;BME280;58098;51.680;5.134;2023-05-27T10:29:35;102633.69;;;24.21;96.48
70546;BME280;58098;51.680;5.134;2023-05-27T10:32:04;102637.50;;;24.35;89.76
70546;BME280;58098;51.680;5.134;2023-05-27T10:34:37;102626.47;;;24.54;91.95
70546;BME280;58098;51.680;5.134;2023-05-27T10:37:03;102641.09;;;23.77;78.41
70546;BME280;58098;51.680;5.134;2023-05-27T10:39:28;102618.78;;;23.86;98.93
70546;BME280;58098;51.680;5.134;2023-05-27T10:41:55;102635.78;;;23.93;83.02
70546;BME280;58098;51.680;5.134;2023-05-27T10:44:34;102627.75;;;23.85;93.15
70546;BME280;58098;51.680;5.134;2023-05-27T10:47:01;102627.72;;;23.69;96.10
70546;BME280;58098;51.680;5.134;2023-05-27T10:49:27;102621.66;;;24.17;90.62
70546;BME280;58098;51.680;5.134;2023-05-27T10:51:58;102610.13;;;24.65;91.62
70546;BME280;58098;51.680;5.134;2023-05-27T10:54:26;102609.78;;;24.84;84.02
70546;BME280;58098;51.680;5.134;2023-05-27T10:56:51;102611.59;;;24.75;79.95
70546;BME280;58098;51.680;5.134;2023-05-27T10:59:21;102605.34;;;25.07;87.16
70546;BME280;58098;51.680;5.134;2023-05-27T11:01:53;102592.50;;;25.41;80.38
70546;BME280;58098;51.680;5.134;2023-05-27T11:04:19;102598.44;;;25.60;72.30
70546;BME280;58098;51.680;5.134;2023-05-27T11:07:00;102584.44;;;26.77;77.40
70546;BME280;58098;51.680;5.134;2023-05-27T11:09:25;102585.00;;;26.21;67.46
70546;BME280;58098;51.680;5.134;2023-05-27T11:11:51;102577.09;;;25.97;68.13
70546;BME280;58098;51.680;5.134;2023-05-27T11:14:17;102580.09;;;25.79;63.41
70546;BME280;58098;51.680;5.134;2023-05-27T11:16:48;102571.28;;;25.93;70.09
70546;BME280;58098;51.680;5.134;2023-05-27T11:19:16;102567.47;;;25.88;65.67
70546;BME280;58098;51.680;5.134;2023-05-27T11:21:45;102558.06;;;26.37;69.05
70546;BME280;58098;51.680;5.134;2023-05-27T11:24:15;102557.44;;;26.64;70.20
70546;BME280;58098;51.680;5.134;2023-05-27T11:26:43;102553.59;;;26.81;62.27
70546;BME280;58098;51.680;5.134;2023-05-27T11:29:10;102544.19;;;27.07;59.12
70546;BME280;58098;51.680;5.134;2023-05-27T11:31:36;102535.25;;;26.85;61.75
70546;BME280;58098;51.680;5.134;2023-05-27T11:34:14;102555.31;;;26.74;62.24
70546;BME280;58098;51.680;5.134;2023-05-27T11:36:40;102529.63;;;26.95;73.94
70546;BME280;58098;51.680;5.134;2023-05-27T11:39:12;102536.31;;;27.20;60.87
70546;BME280;58098;51.680;5.134;2023-05-27T11:41:51;102530.09;;;27.34;61.30
70546;BME280;58098;51.680;5.134;2023-05-27T11:44:18;102518.41;;;27.20;55.36
70546;BME280;58098;51.680;5.134;2023-05-27T11:46:45;102514.31;;;27.24;55.44
70546;BME280;58098;51.680;5.134;2023-05-27T11:49:12;102517.22;;;27.65;59.90
70546;BME280;58098;51.680;5.134;2023-05-27T11:51:40;102509.47;;;27.98;53.76
70546;BME280;58098;51.680;5.134;2023-05-27T11:54:05;102510.47;;;27.97;51.59
70546;BME280;58098;51.680;5.134;2023-05-27T11:56:31;102498.75;;;28.60;53.09
70546;BME280;58098;51.680;5.134;2023-05-27T11:58:58;102502.31;;;28.67;51.13
70546;BME280;58098;51.680;5.134;2023-05-27T12:01:23;102491.88;;;28.51;49.92
70546;BME280;58098;51.680;5.134;2023-05-27T12:03:49;102497.41;;;28.08;48.36
70546;BME280;58098;51.680;5.134;2023-05-27T12:06:14;102493.06;;;28.76;52.43
70546;BME280;58098;51.680;5.134;2023-05-27T12:08:43;102498.63;;;29.22;54.49
70546;BME280;58098;51.680;5.134;2023-05-27T12:11:08;102487.28;;;29.39;50.84
70546;BME280;58098;51.680;5.134;2023-05-27T12:13:34;102473.59;;;29.48;46.48
70546;BME280;58098;51.680;5.134;2023-05-27T12:15:59;102479.84;;;30.20;48.33
70546;BME280;58098;51.680;5.134;2023-05-27T12:18:25;102478.06;;;29.08;43.26
70546;BME280;58098;51.680;5.134;2023-05-27T12:20:50;102473.03;;;28.92;44.37
70546;BME280;58098;51.680;5.134;2023-05-27T12:23:16;102456.66;;;29.73;46.11
70546;BME280;58098;51.680;5.134;2023-05-27T12:25:41;102466.19;;;29.82;46.72
70546;BME280;58098;51.680;5.134;2023-05-27T12:28:09;102455.56;;;30.27;43.26
70546;BME280;58098;51.680;5.134;2023-05-27T12:30:36;102464.31;;;29.57;43.40
70546;BME280;58098;51.680;5.134;2023-05-27T12:33:03;102457.06;;;29.44;42.97
70546;BME280;58098;51.680;5.134;2023-05-27T12:35:29;102462.41;;;30.36;42.35
70546;BME280;58098;51.680;5.134;2023-05-27T12:37:55;102449.53;;;30.38;40.44
70546;BME280;58098;51.680;5.134;2023-05-27T12:40:21;102454.13;;;30.24;39.70
70546;BME280;58098;51.680;5.134;2023-05-27T12:42:46;102443.56;;;30.80;40.60
70546;BME280;58098;51.680;5.134;2023-05-27T12:45:11;102436.41;;;30.54;40.17
70546;BME280;58098;51.680;5.134;2023-05-27T12:47:37;102452.81;;;30.53;39.41